createdAt,value
2018-10-05T00:00:08.197Z,86
2018-10-05T00:00:34.342Z,85.9
2018-10-05T00:01:00.497Z,86
2018-10-05T00:01:26.674Z,85.52
2018-10-05T00:01:52.816Z,85.33
2018-10-05T00:02:18.932Z,85.62
2018-10-05T00:02:45.083Z,85.81
2018-10-05T00:03:11.196Z,86.1
2018-10-05T00:03:37.353Z,85.96
2018-10-05T00:04:03.484Z,85.96
2018-10-05T00:04:29.641Z,86.72
2018-10-05T00:04:55.781Z,86.05
2018-10-05T00:05:21.915Z,86.82
2018-10-05T00:05:48.075Z,86.34
2018-10-05T00:06:14.236Z,86.72
2018-10-05T00:06:40.373Z,86.53
2018-10-05T00:07:06.502Z,86
2018-10-05T00:07:32.635Z,86.1
2018-10-05T00:07:58.769Z,86
2018-10-05T00:08:24.899Z,85.81
2018-10-05T00:08:51.031Z,86
2018-10-05T00:09:17.189Z,86
2018-10-05T00:09:43.346Z,85.9
2018-10-05T00:10:09.502Z,85.9
2018-10-05T00:10:35.631Z,85.52
2018-10-05T00:11:01.788Z,85.14
2018-10-05T00:11:27.919Z,85.52
2018-10-05T00:11:54.065Z,85.52
2018-10-05T00:12:20.197Z,85.86
2018-10-05T00:12:46.451Z,85.81
2018-10-05T00:13:12.485Z,86
2018-10-05T00:13:38.630Z,85.96
2018-10-05T00:14:04.794Z,86.24
2018-10-05T00:14:30.924Z,86.43
2018-10-05T00:14:57.057Z,86.63
2018-10-05T00:15:23.189Z,85.96
2018-10-05T00:15:49.346Z,86.63
2018-10-05T00:16:15.484Z,85.86
2018-10-05T00:16:41.616Z,86.05
2018-10-05T00:17:07.773Z,86.34
2018-10-05T00:17:33.905Z,86.15
2018-10-05T00:18:00.045Z,86.24
2018-10-05T00:18:26.180Z,85.86
2018-10-05T00:18:52.338Z,86.24
2018-10-05T00:19:18.468Z,86.82
2018-10-05T00:19:44.612Z,86.53
2018-10-05T00:20:10.772Z,86.53
2018-10-05T00:20:37.008Z,86.91
2018-10-05T00:21:03.120Z,86.53
2018-10-05T00:21:29.283Z,86.24
2018-10-05T00:21:55.431Z,86.72
2018-10-05T00:22:21.567Z,86.43
2018-10-05T00:22:47.724Z,86.53
2018-10-05T00:23:13.899Z,86.43
2018-10-05T00:23:40.034Z,86.63
2018-10-05T00:24:06.187Z,86.15
2018-10-05T00:24:32.329Z,86.24
2018-10-05T00:24:58.463Z,86.24
2018-10-05T00:25:24.598Z,86.34
2018-10-05T00:25:50.725Z,85.96
2018-10-05T00:26:16.870Z,86.15
2018-10-05T00:26:42.999Z,86.24
2018-10-05T00:27:09.137Z,86.05
2018-10-05T00:27:35.278Z,86.24
2018-10-05T00:28:01.406Z,86.72
2018-10-05T00:28:27.539Z,86.34
2018-10-05T00:28:53.698Z,86.24
2018-10-05T00:29:19.875Z,86.24
2018-10-05T00:29:46.010Z,86.24
2018-10-05T00:30:12.140Z,86.34
2018-10-05T00:30:38.275Z,85.96
2018-10-05T00:31:04.449Z,86.24
2018-10-05T00:31:30.603Z,86.34
2018-10-05T00:31:56.732Z,86.53
2018-10-05T00:32:22.932Z,86.34
2018-10-05T00:32:49.009Z,86.05
2018-10-05T00:33:15.171Z,86.05
2018-10-05T00:33:41.299Z,86.43
2018-10-05T00:34:07.431Z,86.05
2018-10-05T00:34:33.585Z,85.96
2018-10-05T00:34:59.738Z,85.96
2018-10-05T00:35:25.875Z,86.82
2018-10-05T00:35:52.024Z,86.15
2018-10-05T00:36:18.185Z,86.63
2018-10-05T00:36:44.364Z,86.43
2018-10-05T00:37:10.493Z,86.43
2018-10-05T00:37:36.650Z,86.53
2018-10-05T00:38:02.829Z,86.63
2018-10-05T00:38:28.941Z,86.63
2018-10-05T00:38:55.085Z,86.63
2018-10-05T00:39:21.216Z,86.63
2018-10-05T00:39:47.358Z,86.34
2018-10-05T00:40:13.511Z,85.86
2018-10-05T00:40:39.649Z,86.63
2018-10-05T00:41:05.802Z,86.91
2018-10-05T00:41:31.965Z,87.1
2018-10-05T00:41:58.104Z,86.63
2018-10-05T00:42:24.239Z,86.05
2018-10-05T00:42:50.372Z,85.86
2018-10-05T00:43:16.500Z,86.34
2018-10-05T00:43:42.639Z,86.63
2018-10-05T00:44:08.767Z,86.63
2018-10-05T00:44:34.904Z,86.05
2018-10-05T00:45:01.030Z,86.53
2018-10-05T00:45:27.190Z,86.72
2018-10-05T00:45:53.327Z,86.15
2018-10-05T00:46:19.459Z,87.01
2018-10-05T00:46:45.588Z,85.96
2018-10-05T00:47:11.719Z,85.96
2018-10-05T00:47:37.854Z,86.72
2018-10-05T00:48:03.985Z,86.63
2018-10-05T00:48:30.147Z,86.72
2018-10-05T00:48:56.273Z,86.63
2018-10-05T00:49:22.395Z,86.05
2018-10-05T00:49:48.553Z,86.63
2018-10-05T00:50:14.691Z,86.63
2018-10-05T00:50:40.844Z,86.91
2018-10-05T00:51:06.999Z,86.53
2018-10-05T00:51:33.131Z,86.24
2018-10-05T00:51:59.268Z,86.82
2018-10-05T00:52:25.403Z,86.34
2018-10-05T00:52:51.605Z,86.72
2018-10-05T00:53:17.775Z,86.72
2018-10-05T00:53:43.847Z,86.53
2018-10-05T00:54:10.006Z,85.96
2018-10-05T00:54:36.142Z,86.34
2018-10-05T00:55:02.268Z,86.05
2018-10-05T00:55:28.423Z,85.96
2018-10-05T00:55:54.577Z,86.05
2018-10-05T00:56:20.715Z,86.24
2018-10-05T00:56:46.895Z,86.72
2018-10-05T00:57:13.020Z,86.91
2018-10-05T00:57:39.174Z,86.43
2018-10-05T00:58:05.308Z,86.43
2018-10-05T00:58:31.447Z,86.34
2018-10-05T00:58:57.572Z,85.96
2018-10-05T00:59:23.704Z,86.53
2018-10-05T00:59:49.836Z,85.96
2018-10-05T01:00:15.972Z,86.15
2018-10-05T01:00:42.108Z,86.82
2018-10-05T01:01:08.235Z,85.96
2018-10-05T01:01:34.371Z,86.43
2018-10-05T01:02:00.539Z,86.43
2018-10-05T01:02:26.701Z,86.53
2018-10-05T01:02:52.832Z,86.34
2018-10-05T01:03:18.959Z,86.34
2018-10-05T01:03:45.088Z,86.72
2018-10-05T01:04:11.220Z,86.72
2018-10-05T01:04:37.352Z,86.91
2018-10-05T01:05:03.488Z,86.91
2018-10-05T01:05:29.619Z,86.91
2018-10-05T01:05:55.752Z,86.43
2018-10-05T01:06:21.886Z,86.53
2018-10-05T01:06:48.016Z,86.43
2018-10-05T01:07:14.174Z,86.53
2018-10-05T01:07:40.338Z,86.63
2018-10-05T01:08:06.464Z,86.43
2018-10-05T01:08:32.602Z,86.72
2018-10-05T01:08:58.729Z,86.53
2018-10-05T01:09:24.858Z,86.15
2018-10-05T01:09:50.998Z,86.43
2018-10-05T01:10:17.131Z,86.91
2018-10-05T01:10:43.264Z,86.53
2018-10-05T01:11:09.396Z,86.34
2018-10-05T01:11:35.699Z,86.91
2018-10-05T01:12:01.692Z,86.91
2018-10-05T01:12:27.832Z,86.72
2018-10-05T01:12:53.965Z,86.91
2018-10-05T01:13:20.122Z,86.91
2018-10-05T01:13:46.256Z,86.91
2018-10-05T01:14:12.400Z,86.72
2018-10-05T01:14:38.524Z,86.72
2018-10-05T01:15:04.663Z,86.72
2018-10-05T01:15:30.797Z,87.01
2018-10-05T01:15:56.930Z,86.91
2018-10-05T01:16:23.057Z,87.1
2018-10-05T01:16:49.223Z,87.1
2018-10-05T01:17:15.356Z,86.91
2018-10-05T01:17:41.490Z,86.72
2018-10-05T01:18:07.628Z,86.77
2018-10-05T01:18:33.778Z,86.82
2018-10-05T01:18:59.905Z,86.91
2018-10-05T01:19:26.068Z,86.72
2018-10-05T01:19:52.223Z,86.87
2018-10-05T01:20:18.374Z,87.25
2018-10-05T01:20:44.502Z,87.73
2018-10-05T01:21:10.635Z,87.54
2018-10-05T01:21:36.771Z,87.82
2018-10-05T01:22:02.903Z,88.01
2018-10-05T01:22:29.034Z,88.01
2018-10-05T01:22:55.174Z,87.73
2018-10-05T01:23:21.308Z,87.63
2018-10-05T01:23:47.442Z,87.29
2018-10-05T01:24:13.576Z,87.29
2018-10-05T01:24:39.726Z,87.29
2018-10-05T01:25:05.869Z,86.82
2018-10-05T01:25:31.998Z,86.91
2018-10-05T01:25:58.136Z,87.01
2018-10-05T01:26:24.266Z,86.91
2018-10-05T01:26:50.399Z,86.91
2018-10-05T01:27:16.529Z,86.91
2018-10-05T01:27:42.708Z,87.2
2018-10-05T01:28:08.854Z,87.35
2018-10-05T01:28:34.984Z,86.91
2018-10-05T01:29:01.147Z,86.91
2018-10-05T01:29:27.299Z,86.91
2018-10-05T01:29:53.429Z,87.01
2018-10-05T01:30:19.564Z,87.15
2018-10-05T01:30:45.699Z,87.06
2018-10-05T01:31:11.838Z,87.44
2018-10-05T01:31:37.969Z,87.54
2018-10-05T01:32:04.096Z,87.63
2018-10-05T01:32:30.253Z,87.92
2018-10-05T01:32:56.408Z,87.44
2018-10-05T01:33:22.544Z,87.29
2018-10-05T01:33:48.673Z,87.25
2018-10-05T01:34:14.803Z,87.35
2018-10-05T01:34:40.925Z,87.44
2018-10-05T01:35:07.058Z,87.92
2018-10-05T01:35:33.185Z,87.54
2018-10-05T01:35:59.335Z,87.73
2018-10-05T01:36:25.519Z,87.82
2018-10-05T01:36:51.653Z,87.73
2018-10-05T01:37:17.796Z,87.82
2018-10-05T01:37:43.914Z,87.44
2018-10-05T01:38:10.075Z,87.54
2018-10-05T01:38:36.261Z,87.25
2018-10-05T01:39:02.393Z,87.44
2018-10-05T01:39:28.523Z,87.44
2018-10-05T01:39:54.663Z,87.63
2018-10-05T01:40:20.791Z,87.54
2018-10-05T01:40:46.953Z,87.63
2018-10-05T01:41:13.082Z,87.73
2018-10-05T01:41:39.211Z,87.68
2018-10-05T01:42:05.361Z,87.54
2018-10-05T01:42:31.493Z,87.1
2018-10-05T01:42:57.628Z,86.91
2018-10-05T01:43:23.784Z,87.2
2018-10-05T01:43:49.942Z,86.53
2018-10-05T01:44:16.077Z,86.53
2018-10-05T01:44:42.207Z,86.3
2018-10-05T01:45:08.339Z,86.87
2018-10-05T01:45:34.475Z,87.15
2018-10-05T01:46:00.615Z,86.87
2018-10-05T01:46:26.739Z,87.44
2018-10-05T01:46:52.894Z,87.35
2018-10-05T01:47:19.029Z,87.25
2018-10-05T01:47:45.171Z,87.25
2018-10-05T01:48:11.308Z,87.73
2018-10-05T01:48:37.437Z,87.44
2018-10-05T01:49:03.567Z,88.3
2018-10-05T01:49:29.696Z,87.92
2018-10-05T01:49:55.831Z,87.92
2018-10-05T01:50:21.986Z,88.11
2018-10-05T01:50:48.118Z,88.68
2018-10-05T01:51:14.251Z,88.59
2018-10-05T01:51:40.379Z,88.4
2018-10-05T01:52:06.517Z,88.2
2018-10-05T01:52:32.693Z,88.2
2018-10-05T01:52:58.821Z,88.01
2018-10-05T01:53:24.962Z,88.97
2018-10-05T01:53:51.096Z,88.2
2018-10-05T01:54:17.231Z,88.3
2018-10-05T01:54:43.355Z,88.2
2018-10-05T01:55:09.498Z,88.49
2018-10-05T01:55:35.623Z,88.2
2018-10-05T01:56:01.759Z,88.2
2018-10-05T01:56:27.893Z,88.3
2018-10-05T01:56:54.031Z,88.49
2018-10-05T01:57:20.154Z,88.2
2018-10-05T01:57:46.313Z,88.59
2018-10-05T01:58:12.474Z,88.49
2018-10-05T01:58:38.606Z,88.59
2018-10-05T01:59:04.728Z,87.63
2018-10-05T01:59:30.866Z,87.92
2018-10-05T01:59:57.001Z,87.54
2018-10-05T02:00:23.125Z,87.35
2018-10-05T02:00:49.289Z,87.44
2018-10-05T02:01:15.439Z,87.25
2018-10-05T02:01:41.604Z,87.25
2018-10-05T02:02:07.752Z,87.92
2018-10-05T02:02:33.971Z,87.73
2018-10-05T02:03:00.058Z,87.82
2018-10-05T02:03:26.193Z,87.44
2018-10-05T02:03:52.323Z,87.63
2018-10-05T02:04:18.451Z,87.82
2018-10-05T02:04:44.589Z,87.82
2018-10-05T02:05:10.724Z,87.54
2018-10-05T02:05:36.852Z,87.82
2018-10-05T02:06:02.982Z,87.63
2018-10-05T02:06:29.115Z,87.82
2018-10-05T02:06:55.244Z,87.82
2018-10-05T02:07:21.382Z,87.73
2018-10-05T02:07:47.568Z,87.82
2018-10-05T02:08:13.700Z,87.25
2018-10-05T02:08:39.884Z,87.35
2018-10-05T02:09:06.016Z,87.35
2018-10-05T02:09:32.176Z,87.44
2018-10-05T02:09:58.303Z,87.63
2018-10-05T02:10:24.445Z,87.82
2018-10-05T02:10:50.596Z,87.25
2018-10-05T02:11:16.728Z,87.06
2018-10-05T02:11:42.885Z,86.96
2018-10-05T02:12:09.020Z,86.87
2018-10-05T02:12:35.166Z,86.87
2018-10-05T02:13:01.313Z,86.87
2018-10-05T02:13:27.446Z,86.87
2018-10-05T02:13:53.572Z,86.49
2018-10-05T02:14:19.716Z,86.77
2018-10-05T02:14:45.838Z,86.96
2018-10-05T02:15:11.971Z,87.06
2018-10-05T02:15:38.106Z,87.06
2018-10-05T02:16:04.236Z,86.49
2018-10-05T02:16:30.372Z,86.39
2018-10-05T02:16:56.527Z,86.39
2018-10-05T02:17:22.661Z,86.3
2018-10-05T02:17:48.793Z,86.58
2018-10-05T02:18:14.921Z,86.58
2018-10-05T02:18:41.050Z,86.24
2018-10-05T02:19:07.190Z,86.63
2018-10-05T02:19:33.317Z,86.72
2018-10-05T02:19:59.447Z,85.91
2018-10-05T02:20:25.582Z,85.86
2018-10-05T02:20:51.714Z,86.91
2018-10-05T02:21:17.848Z,86.82
2018-10-05T02:21:43.981Z,86.72
2018-10-05T02:22:10.113Z,86.39
2018-10-05T02:22:36.245Z,85.86
2018-10-05T02:23:02.387Z,86.49
2018-10-05T02:23:28.528Z,85.91
2018-10-05T02:23:54.656Z,86.68
2018-10-05T02:24:20.806Z,86.49
2018-10-05T02:24:46.944Z,86.01
2018-10-05T02:25:13.097Z,86.68
2018-10-05T02:25:39.227Z,86.49
2018-10-05T02:26:05.357Z,86.39
2018-10-05T02:26:31.492Z,86.39
2018-10-05T02:26:57.626Z,86.49
2018-10-05T02:27:23.770Z,86.39
2018-10-05T02:27:49.889Z,86.3
2018-10-05T02:28:16.022Z,86.05
2018-10-05T02:28:42.176Z,87.1
2018-10-05T02:29:08.309Z,86.87
2018-10-05T02:29:34.441Z,86.63
2018-10-05T02:30:00.571Z,85.86
2018-10-05T02:30:26.772Z,85.96
2018-10-05T02:30:52.957Z,86.05
2018-10-05T02:31:19.119Z,86.15
2018-10-05T02:31:45.268Z,86.15
2018-10-05T02:32:11.447Z,86.05
2018-10-05T02:32:37.591Z,86.24
2018-10-05T02:33:03.805Z,86.15
2018-10-05T02:33:29.907Z,86.15
2018-10-05T02:33:56.043Z,85.77
2018-10-05T02:34:22.173Z,85.58
2018-10-05T02:34:48.355Z,85.38
2018-10-05T02:35:14.490Z,85.38
2018-10-05T02:35:40.645Z,85.38
2018-10-05T02:36:06.823Z,85.77
2018-10-05T02:36:32.960Z,85.19
2018-10-05T02:36:59.113Z,85
2018-10-05T02:37:25.262Z,85.86
2018-10-05T02:37:51.400Z,85.38
2018-10-05T02:38:17.568Z,85.86
2018-10-05T02:38:43.720Z,86.05
2018-10-05T02:39:09.885Z,85.29
2018-10-05T02:39:36.071Z,85.29
2018-10-05T02:40:02.259Z,85.48
2018-10-05T02:40:28.390Z,85.38
2018-10-05T02:40:54.535Z,85.29
2018-10-05T02:41:20.670Z,85.19
2018-10-05T02:41:46.930Z,85.86
2018-10-05T02:42:13.045Z,85.38
2018-10-05T02:42:39.233Z,85.77
2018-10-05T02:43:05.383Z,85.58
2018-10-05T02:43:31.542Z,85
2018-10-05T02:43:57.693Z,85.1
2018-10-05T02:44:23.829Z,85.15
2018-10-05T02:44:49.962Z,85.82
2018-10-05T02:45:16.092Z,86.3
2018-10-05T02:45:42.270Z,86.01
2018-10-05T02:46:08.406Z,86.01
2018-10-05T02:46:34.573Z,86.01
2018-10-05T02:47:00.695Z,86.39
2018-10-05T02:47:26.830Z,86.39
2018-10-05T02:47:52.980Z,86.77
2018-10-05T02:48:19.110Z,86.68
2018-10-05T02:48:45.270Z,86.87
2018-10-05T02:49:11.395Z,87.06
2018-10-05T02:49:37.627Z,87.06
2018-10-05T02:50:03.782Z,86.87
2018-10-05T02:50:29.916Z,87.15
2018-10-05T02:50:56.043Z,87.25
2018-10-05T02:51:22.176Z,86.96
2018-10-05T02:51:48.312Z,86.87
2018-10-05T02:52:14.477Z,87.06
2018-10-05T02:52:40.637Z,87.15
2018-10-05T02:53:06.768Z,86.68
2018-10-05T02:53:32.906Z,86.3
2018-10-05T02:53:59.078Z,86.39
2018-10-05T02:54:25.237Z,86.49
2018-10-05T02:54:51.376Z,86.58
2018-10-05T02:55:17.504Z,86.68
2018-10-05T02:55:43.655Z,86.96
2018-10-05T02:56:09.810Z,86.58
2018-10-05T02:56:35.967Z,86.58
2018-10-05T02:57:02.123Z,86.68
2018-10-05T02:57:28.251Z,86.68
2018-10-05T02:57:54.413Z,86.87
2018-10-05T02:58:20.547Z,85.72
2018-10-05T02:58:46.681Z,86.77
2018-10-05T02:59:12.812Z,86.68
2018-10-05T02:59:38.967Z,86.87
2018-10-05T03:00:05.125Z,85.91
2018-10-05T03:00:31.253Z,86.2
2018-10-05T03:00:57.414Z,85.72
2018-10-05T03:01:23.542Z,86.01
2018-10-05T03:01:49.672Z,86.2
2018-10-05T03:02:15.831Z,86.1
2018-10-05T03:02:41.990Z,86.2
2018-10-05T03:03:08.142Z,86.2
2018-10-05T03:03:34.280Z,86.1
2018-10-05T03:04:00.441Z,86.2
2018-10-05T03:04:26.624Z,86.2
2018-10-05T03:04:52.796Z,86.2
2018-10-05T03:05:18.925Z,86.2
2018-10-05T03:05:45.083Z,86.2
2018-10-05T03:06:11.267Z,86.1
2018-10-05T03:06:37.390Z,85.91
2018-10-05T03:07:03.555Z,86.2
2018-10-05T03:07:29.711Z,85.72
2018-10-05T03:07:55.835Z,85.82
2018-10-05T03:08:21.996Z,86.01
2018-10-05T03:08:48.132Z,85.34
2018-10-05T03:09:14.286Z,85.29
2018-10-05T03:09:40.421Z,85.63
2018-10-05T03:10:06.566Z,85.15
2018-10-05T03:10:32.734Z,85.48
2018-10-05T03:10:58.863Z,85.48
2018-10-05T03:11:24.998Z,85
2018-10-05T03:11:51.128Z,85.05
2018-10-05T03:12:17.261Z,84.58
2018-10-05T03:12:43.392Z,85
2018-10-05T03:13:09.549Z,85.1
2018-10-05T03:13:35.683Z,85.1
2018-10-05T03:14:01.852Z,85.58
2018-10-05T03:14:28.010Z,85.19
2018-10-05T03:14:54.150Z,85
2018-10-05T03:15:20.274Z,84.33
2018-10-05T03:15:46.403Z,85
2018-10-05T03:16:12.564Z,85.1
2018-10-05T03:16:38.691Z,85.25
2018-10-05T03:17:04.821Z,84.96
2018-10-05T03:17:30.957Z,85.05
2018-10-05T03:17:57.083Z,85.25
2018-10-05T03:18:23.213Z,85.82
2018-10-05T03:18:49.351Z,85.25
2018-10-05T03:19:15.479Z,85.82
2018-10-05T03:19:41.686Z,85.44
2018-10-05T03:20:07.746Z,85.34
2018-10-05T03:20:33.901Z,85.91
2018-10-05T03:21:00.037Z,85.91
2018-10-05T03:21:26.198Z,85.82
2018-10-05T03:21:52.352Z,85.82
2018-10-05T03:22:18.481Z,85.91
2018-10-05T03:22:44.609Z,85.53
2018-10-05T03:23:10.742Z,86.3
2018-10-05T03:23:36.901Z,86.3
2018-10-05T03:24:03.031Z,86.1
2018-10-05T03:24:29.211Z,86.1
2018-10-05T03:24:55.368Z,85.72
2018-10-05T03:25:21.528Z,85.72
2018-10-05T03:25:47.659Z,85.72
2018-10-05T03:26:13.834Z,85.82
2018-10-05T03:26:39.964Z,85.82
2018-10-05T03:27:06.132Z,85.82
2018-10-05T03:27:32.296Z,85.91
2018-10-05T03:27:58.432Z,85.72
2018-10-05T03:28:24.564Z,85.72
2018-10-05T03:28:50.692Z,85.82
2018-10-05T03:29:16.881Z,85.91
2018-10-05T03:29:43.055Z,85.44
2018-10-05T03:30:09.219Z,85.53
2018-10-05T03:30:35.414Z,85.34
2018-10-05T03:31:01.567Z,85.82
2018-10-05T03:31:27.721Z,85.72
2018-10-05T03:31:53.866Z,85.91
2018-10-05T03:32:20.035Z,86.1
2018-10-05T03:32:46.225Z,86.39
2018-10-05T03:33:12.371Z,86.1
2018-10-05T03:33:38.548Z,86.3
2018-10-05T03:34:04.707Z,86.01
2018-10-05T03:34:30.862Z,86.63
2018-10-05T03:34:57.063Z,86.58
2018-10-05T03:35:23.203Z,86.82
2018-10-05T03:35:49.357Z,86.44
2018-10-05T03:36:15.563Z,87.02
2018-10-05T03:36:41.700Z,86.49
2018-10-05T03:37:07.821Z,87.21
2018-10-05T03:37:33.960Z,86.92
2018-10-05T03:38:00.097Z,87.02
2018-10-05T03:38:26.252Z,86.58
2018-10-05T03:38:52.385Z,86.92
2018-10-05T03:39:18.516Z,86.49
2018-10-05T03:39:44.648Z,86.49
2018-10-05T03:40:10.780Z,86.87
2018-10-05T03:40:36.961Z,86.96
2018-10-05T03:41:03.092Z,86.49
2018-10-05T03:41:29.271Z,86.58
2018-10-05T03:41:55.400Z,86.49
2018-10-05T03:42:21.532Z,86.49
2018-10-05T03:42:47.663Z,86.58
2018-10-05T03:43:13.842Z,86.2
2018-10-05T03:43:39.973Z,86.58
2018-10-05T03:44:06.104Z,86.1
2018-10-05T03:44:32.257Z,86.2
2018-10-05T03:44:58.389Z,86.77
2018-10-05T03:45:24.545Z,86.68
2018-10-05T03:45:50.677Z,86.58
2018-10-05T03:46:16.805Z,86.49
2018-10-05T03:46:42.965Z,86.44
2018-10-05T03:47:09.099Z,86.44
2018-10-05T03:47:35.236Z,86.73
2018-10-05T03:48:01.371Z,86.92
2018-10-05T03:48:27.500Z,86.87
2018-10-05T03:48:53.634Z,87.15
2018-10-05T03:49:19.766Z,86.39
2018-10-05T03:49:45.896Z,86.01
2018-10-05T03:50:12.074Z,86.87
2018-10-05T03:50:38.237Z,86.77
2018-10-05T03:51:04.390Z,86.2
2018-10-05T03:51:30.523Z,86.3
2018-10-05T03:51:56.660Z,86.3
2018-10-05T03:52:22.813Z,86.44
2018-10-05T03:52:48.946Z,87.25
2018-10-05T03:53:15.095Z,86.92
2018-10-05T03:53:41.253Z,87.02
2018-10-05T03:54:07.405Z,86.92
2018-10-05T03:54:33.534Z,87.02
2018-10-05T03:54:59.727Z,86.92
2018-10-05T03:55:25.886Z,87.15
2018-10-05T03:55:52.021Z,87.02
2018-10-05T03:56:18.179Z,86.92
2018-10-05T03:56:44.337Z,87.21
2018-10-05T03:57:10.520Z,86.92
2018-10-05T03:57:36.673Z,86.54
2018-10-05T03:58:02.811Z,86.92
2018-10-05T03:58:28.974Z,87.21
2018-10-05T03:58:55.131Z,87.02
2018-10-05T03:59:21.310Z,87.11
2018-10-05T03:59:47.458Z,86.92
2018-10-05T04:00:13.614Z,86.92
2018-10-05T04:00:39.750Z,86.92
2018-10-05T04:01:05.883Z,86.92
2018-10-05T04:01:32.014Z,86.92
2018-10-05T04:01:58.148Z,87.02
2018-10-05T04:02:24.311Z,86.44
2018-10-05T04:02:50.441Z,87.02
2018-10-05T04:03:16.596Z,86.82
2018-10-05T04:03:42.731Z,86.25
2018-10-05T04:04:08.917Z,86.82
2018-10-05T04:04:35.046Z,87.02
2018-10-05T04:05:01.174Z,87.4
2018-10-05T04:05:27.331Z,87.4
2018-10-05T04:05:53.466Z,87.3
2018-10-05T04:06:19.640Z,87.4
2018-10-05T04:06:45.775Z,87.68
2018-10-05T04:07:11.955Z,87.87
2018-10-05T04:07:38.083Z,87.78
2018-10-05T04:08:04.253Z,88.07
2018-10-05T04:08:30.415Z,87.97
2018-10-05T04:08:56.547Z,88.16
2018-10-05T04:09:22.703Z,87.87
2018-10-05T04:09:48.833Z,87.87
2018-10-05T04:10:14.989Z,87.97
2018-10-05T04:10:41.124Z,87.97
2018-10-05T04:11:07.251Z,87.78
2018-10-05T04:11:33.405Z,87.87
2018-10-05T04:11:59.543Z,87.87
2018-10-05T04:12:25.699Z,87.97
2018-10-05T04:12:51.825Z,87.87
2018-10-05T04:13:17.964Z,87.87
2018-10-05T04:13:44.083Z,87.87
2018-10-05T04:14:10.222Z,88.07
2018-10-05T04:14:36.352Z,87.87
2018-10-05T04:15:02.511Z,87.87
2018-10-05T04:15:28.664Z,88.07
2018-10-05T04:15:54.807Z,87.97
2018-10-05T04:16:21.000Z,87.87
2018-10-05T04:16:47.154Z,87.78
2018-10-05T04:17:13.294Z,87.78
2018-10-05T04:17:39.420Z,88.16
2018-10-05T04:18:05.599Z,88.07
2018-10-05T04:18:31.750Z,87.87
2018-10-05T04:18:57.887Z,88.07
2018-10-05T04:19:24.022Z,87.49
2018-10-05T04:19:50.171Z,87.59
2018-10-05T04:20:16.303Z,87.68
2018-10-05T04:20:42.467Z,87.68
2018-10-05T04:21:08.597Z,87.68
2018-10-05T04:21:34.735Z,87.49
2018-10-05T04:22:00.883Z,87.4
2018-10-05T04:22:27.019Z,87.4
2018-10-05T04:22:53.149Z,87.59
2018-10-05T04:23:19.281Z,87.02
2018-10-05T04:23:45.412Z,86.82
2018-10-05T04:24:11.567Z,86.82
2018-10-05T04:24:37.693Z,86.82
2018-10-05T04:25:03.828Z,87.21
2018-10-05T04:25:29.984Z,86.63
2018-10-05T04:25:56.145Z,86.92
2018-10-05T04:26:22.279Z,86.82
2018-10-05T04:26:48.417Z,87.02
2018-10-05T04:27:14.585Z,86.82
2018-10-05T04:27:40.769Z,86.82
2018-10-05T04:28:06.895Z,86.92
2018-10-05T04:28:33.081Z,87.4
2018-10-05T04:28:59.248Z,87.4
2018-10-05T04:29:25.380Z,87.4
2018-10-05T04:29:51.516Z,87.49
2018-10-05T04:30:17.699Z,87.4
2018-10-05T04:30:43.855Z,87.21
2018-10-05T04:31:09.986Z,86.82
2018-10-05T04:31:36.121Z,86.82
2018-10-05T04:32:02.273Z,86.63
2018-10-05T04:32:28.400Z,87.11
2018-10-05T04:32:54.563Z,86.92
2018-10-05T04:33:20.746Z,86.82
2018-10-05T04:33:46.899Z,87.11
2018-10-05T04:34:13.059Z,87.11
2018-10-05T04:34:39.237Z,87.21
2018-10-05T04:35:05.418Z,86.82
2018-10-05T04:35:31.553Z,87.21
2018-10-05T04:35:57.734Z,87.4
2018-10-05T04:36:23.916Z,87.02
2018-10-05T04:36:49.996Z,87.49
2018-10-05T04:37:16.130Z,87.68
2018-10-05T04:37:42.314Z,87.78
2018-10-05T04:38:08.444Z,87.59
2018-10-05T04:38:34.601Z,88.16
2018-10-05T04:39:00.760Z,88.07
2018-10-05T04:39:26.926Z,88.26
2018-10-05T04:39:53.060Z,87.87
2018-10-05T04:40:19.211Z,87.87
2018-10-05T04:40:45.369Z,87.78
2018-10-05T04:41:11.591Z,87.78
2018-10-05T04:41:37.659Z,88.07
2018-10-05T04:42:03.791Z,87.87
2018-10-05T04:42:29.968Z,87.87
2018-10-05T04:42:56.104Z,88.54
2018-10-05T04:43:22.253Z,87.97
2018-10-05T04:43:48.397Z,88.59
2018-10-05T04:44:14.548Z,88.31
2018-10-05T04:44:40.678Z,88.5
2018-10-05T04:45:06.854Z,88.69
2018-10-05T04:45:33.004Z,88.35
2018-10-05T04:45:59.136Z,88.64
2018-10-05T04:46:25.272Z,88.5
2018-10-05T04:46:51.394Z,88.69
2018-10-05T04:47:17.544Z,89.07
2018-10-05T04:47:43.700Z,89.17
2018-10-05T04:48:09.826Z,89.17
2018-10-05T04:48:35.979Z,89.64
2018-10-05T04:49:02.106Z,89.83
2018-10-05T04:49:28.290Z,89.74
2018-10-05T04:49:54.405Z,90.22
2018-10-05T04:50:20.533Z,90.22
2018-10-05T04:50:46.683Z,90.59
2018-10-05T04:51:12.815Z,90.22
2018-10-05T04:51:38.951Z,90.12
2018-10-05T04:52:05.082Z,90.22
2018-10-05T04:52:31.223Z,90.31
2018-10-05T04:52:57.349Z,90.41
2018-10-05T04:53:23.498Z,89.93
2018-10-05T04:53:49.629Z,89.83
2018-10-05T04:54:15.764Z,89.36
2018-10-05T04:54:41.891Z,89.26
2018-10-05T04:55:08.024Z,89.54
2018-10-05T04:55:34.153Z,89.36
2018-10-05T04:56:00.289Z,89.45
2018-10-05T04:56:26.446Z,89.45
2018-10-05T04:56:52.680Z,89.64
2018-10-05T04:57:18.778Z,89.74
2018-10-05T04:57:44.934Z,89.83
2018-10-05T04:58:11.065Z,90.12
2018-10-05T04:58:37.203Z,90.41
2018-10-05T04:59:03.331Z,90.31
2018-10-05T04:59:29.465Z,90.31
2018-10-05T04:59:55.645Z,90.31
2018-10-05T05:00:21.770Z,90.12
2018-10-05T05:00:47.902Z,90.41
2018-10-05T05:01:14.040Z,90.03
2018-10-05T05:01:40.218Z,90.03
2018-10-05T05:02:06.495Z,90.03
2018-10-05T05:02:32.627Z,89.83
2018-10-05T05:02:58.802Z,89.74
2018-10-05T05:03:24.965Z,89.74
2018-10-05T05:03:51.077Z,89.17
2018-10-05T05:04:17.199Z,89.45
2018-10-05T05:04:43.354Z,89.26
2018-10-05T05:05:09.480Z,89.45
2018-10-05T05:05:35.610Z,88.98
2018-10-05T05:06:01.765Z,88.98
2018-10-05T05:06:27.904Z,89.36
2018-10-05T05:06:54.055Z,89.26
2018-10-05T05:07:20.211Z,89.07
2018-10-05T05:07:46.338Z,89.07
2018-10-05T05:08:12.491Z,89.17
2018-10-05T05:08:38.652Z,89.45
2018-10-05T05:09:04.828Z,89.07
2018-10-05T05:09:30.957Z,89.07
2018-10-05T05:09:57.081Z,89.17
2018-10-05T05:10:23.218Z,89.17
2018-10-05T05:10:49.350Z,89.07
2018-10-05T05:11:15.484Z,89.17
2018-10-05T05:11:41.615Z,89.17
2018-10-05T05:12:07.833Z,89.17
2018-10-05T05:12:33.919Z,89.07
2018-10-05T05:13:00.051Z,89.07
2018-10-05T05:13:26.178Z,88.98
2018-10-05T05:13:52.334Z,88.98
2018-10-05T05:14:18.466Z,89.07
2018-10-05T05:14:44.603Z,89.07
2018-10-05T05:15:10.737Z,88.88
2018-10-05T05:15:36.863Z,88.98
2018-10-05T05:16:02.999Z,89.07
2018-10-05T05:16:29.132Z,89.26
2018-10-05T05:16:55.270Z,89.17
2018-10-05T05:17:21.404Z,88.98
2018-10-05T05:17:47.534Z,88.98
2018-10-05T05:18:13.723Z,88.88
2018-10-05T05:18:39.879Z,88.98
2018-10-05T05:19:06.010Z,88.69
2018-10-05T05:19:32.175Z,88.5
2018-10-05T05:19:58.340Z,88.59
2018-10-05T05:20:24.474Z,88.59
2018-10-05T05:20:50.633Z,88.59
2018-10-05T05:21:16.772Z,88.59
2018-10-05T05:21:42.899Z,88.59
2018-10-05T05:22:09.029Z,88.88
2018-10-05T05:22:35.185Z,89.17
2018-10-05T05:23:01.318Z,89.07
2018-10-05T05:23:27.480Z,88.98
2018-10-05T05:23:53.613Z,88.98
2018-10-05T05:24:19.772Z,88.88
2018-10-05T05:24:45.929Z,88.88
2018-10-05T05:25:12.082Z,88.88
2018-10-05T05:25:38.235Z,88.78
2018-10-05T05:26:04.367Z,88.59
2018-10-05T05:26:30.518Z,88.35
2018-10-05T05:26:56.656Z,88.78
2018-10-05T05:27:22.786Z,88.69
2018-10-05T05:27:48.937Z,88.69
2018-10-05T05:28:15.089Z,88.5
2018-10-05T05:28:41.222Z,88.59
2018-10-05T05:29:07.373Z,88.4
2018-10-05T05:29:33.506Z,88.5
2018-10-05T05:29:59.665Z,88.83
2018-10-05T05:30:25.802Z,88.16
2018-10-05T05:30:51.930Z,88.69
2018-10-05T05:31:18.070Z,88.69
2018-10-05T05:31:44.197Z,88.78
2018-10-05T05:32:10.331Z,88.88
2018-10-05T05:32:36.467Z,88.98
2018-10-05T05:33:02.601Z,89.07
2018-10-05T05:33:28.796Z,89.45
2018-10-05T05:33:54.950Z,89.54
2018-10-05T05:34:21.078Z,89.26
2018-10-05T05:34:47.212Z,89.83
2018-10-05T05:35:13.339Z,89.54
2018-10-05T05:35:39.479Z,89.64
2018-10-05T05:36:05.613Z,90.12
2018-10-05T05:36:31.765Z,90.22
2018-10-05T05:36:57.892Z,89.93
2018-10-05T05:37:24.023Z,90.5
2018-10-05T05:37:50.160Z,90.41
2018-10-05T05:38:16.289Z,90.41